sensor_id;sensor_type;location;lat;lon;timestamp;P1;durP1;ratioP1;P2;durP2;ratioP2
39518;SDS011;25200;53.394;10.414;2023-11-21T00:00:12;11.75;;;5.22;;
39518;SDS011;25200;53.394;10.414;2023-11-21T00:02:39;12.15;;;6.15;;
39518;SDS011;25200;53.394;10.414;2023-11-21T00:05:07;14.98;;;6.80;;
39518;SDS011;25200;53.394;10.414;2023-11-21T00:07:39;12.57;;;6.30;;
39518;SDS011;25200;53.394;10.414;2023-11-21T00:10:09;10.07;;;5.22;;
39518;SDS011;25200;53.394;10.414;2023-11-21T00:12:35;11.02;;;5.60;;
39518;SDS011;25200;53.394;10.414;2023-11-21T00:15:02;13.88;;;5.88;;
39518;SDS011;25200;53.394;10.414;2023-11-21T00:17:30;11.43;;;5.85;;
39518;SDS011;25200;53.394;10.414;2023-11-21T00:19:56;11.93;;;6.00;;
39518;SDS011;25200;53.394;10.414;2023-11-21T00:22:21;12.23;;;5.72;;
39518;SDS011;25200;53.394;10.414;2023-11-21T00:24:47;9.98;;;5.05;;
39518;SDS011;25200;53.394;10.414;2023-11-21T00:27:13;9.75;;;5.38;;
39518;SDS011;25200;53.394;10.414;2023-11-21T00:29:39;12.05;;;5.80;;
39518;SDS011;25200;53.394;10.414;2023-11-21T00:32:05;11.25;;;5.60;;
39518;SDS011;25200;53.394;10.414;2023-11-21T00:34:31;9.93;;;5.38;;
39518;SDS011;25200;53.394;10.414;2023-11-21T00:36:57;11.52;;;6.40;;
39518;SDS011;25200;53.394;10.414;2023-11-21T00:39:23;12.52;;;6.55;;
39518;SDS011;25200;53.394;10.414;2023-11-21T00:41:49;10.88;;;5.65;;
39518;SDS011;25200;53.394;10.414;2023-11-21T00:44:16;12.70;;;6.55;;
39518;SDS011;25200;53.394;10.414;2023-11-21T00:46:41;13.18;;;6.95;;
39518;SDS011;25200;53.394;10.414;2023-11-21T00:49:07;15.10;;;6.50;;
39518;SDS011;25200;53.394;10.414;2023-11-21T00:51:33;13.25;;;6.35;;
39518;SDS011;25200;53.394;10.414;2023-11-21T00:53:59;13.75;;;6.68;;
39518;SDS011;25200;53.394;10.414;2023-11-21T00:56:25;15.30;;;7.18;;
39518;SDS011;25200;53.394;10.414;2023-11-21T00:58:51;15.18;;;7.53;;
39518;SDS011;25200;53.394;10.414;2023-11-21T01:01:18;14.68;;;7.45;;
39518;SDS011;25200;53.394;10.414;2023-11-21T01:03:45;11.25;;;7.03;;
39518;SDS011;25200;53.394;10.414;2023-11-21T01:06:11;13.65;;;7.50;;
39518;SDS011;25200;53.394;10.414;2023-11-21T01:08:37;13.27;;;7.78;;
39518;SDS011;25200;53.394;10.414;2023-11-21T01:11:03;13.07;;;7.15;;
39518;SDS011;25200;53.394;10.414;2023-11-21T01:13:29;12.10;;;6.70;;
39518;SDS011;25200;53.394;10.414;2023-11-21T01:15:55;11.52;;;6.78;;
39518;SDS011;25200;53.394;10.414;2023-11-21T01:18:21;13.88;;;7.05;;
39518;SDS011;25200;53.394;10.414;2023-11-21T01:20:47;12.10;;;6.38;;
39518;SDS011;25200;53.394;10.414;2023-11-21T01:23:13;13.27;;;6.97;;
39518;SDS011;25200;53.394;10.414;2023-11-21T01:25:39;14.57;;;7.80;;
39518;SDS011;25200;53.394;10.414;2023-11-21T01:28:05;12.75;;;6.57;;
39518;SDS011;25200;53.394;10.414;2023-11-21T01:30:31;13.57;;;7.30;;
39518;SDS011;25200;53.394;10.414;2023-11-21T01:32:57;15.30;;;7.90;;
39518;SDS011;25200;53.394;10.414;2023-11-21T01:35:23;14.50;;;7.90;;
39518;SDS011;25200;53.394;10.414;2023-11-21T01:37:49;15.30;;;8.45;;
39518;SDS011;25200;53.394;10.414;2023-11-21T01:40:15;14.15;;;7.78;;
39518;SDS011;25200;53.394;10.414;2023-11-21T01:42:41;16.38;;;8.15;;
39518;SDS011;25200;53.394;10.414;2023-11-21T01:45:09;14.13;;;7.68;;
39518;SDS011;25200;53.394;10.414;2023-11-21T01:47:35;15.48;;;7.82;;
39518;SDS011;25200;53.394;10.414;2023-11-21T01:50:03;15.23;;;7.82;;
39518;SDS011;25200;53.394;10.414;2023-11-21T01:52:32;13.25;;;7.07;;
39518;SDS011;25200;53.394;10.414;2023-11-21T01:55:03;13.15;;;6.88;;
39518;SDS011;25200;53.394;10.414;2023-11-21T01:57:31;11.63;;;6.50;;
39518;SDS011;25200;53.394;10.414;2023-11-21T01:59:57;12.32;;;5.97;;
39518;SDS011;25200;53.394;10.414;2023-11-21T02:02:40;11.00;;;6.00;;
39518;SDS011;25200;53.394;10.414;2023-11-21T02:05:13;9.88;;;5.55;;
39518;SDS011;25200;53.394;10.414;2023-11-21T02:07:41;11.57;;;5.70;;
39518;SDS011;25200;53.394;10.414;2023-11-21T02:10:08;9.85;;;5.47;;
39518;SDS011;25200;53.394;10.414;2023-11-21T02:12:34;8.80;;;4.90;;
39518;SDS011;25200;53.394;10.414;2023-11-21T02:15:03;10.57;;;5.40;;
39518;SDS011;25200;53.394;10.414;2023-11-21T02:17:34;9.48;;;5.47;;
39518;SDS011;25200;53.394;10.414;2023-11-21T02:20:00;9.95;;;5.30;;
39518;SDS011;25200;53.394;10.414;2023-11-21T02:22:30;10.60;;;5.40;;
39518;SDS011;25200;53.394;10.414;2023-11-21T02:25:00;9.25;;;5.00;;
39518;SDS011;25200;53.394;10.414;2023-11-21T02:27:26;9.00;;;5.07;;
39518;SDS011;25200;53.394;10.414;2023-11-21T02:29:52;10.50;;;4.70;;
39518;SDS011;25200;53.394;10.414;2023-11-21T02:32:19;7.97;;;4.57;;
39518;SDS011;25200;53.394;10.414;2023-11-21T02:34:47;9.30;;;4.93;;
39518;SDS011;25200;53.394;10.414;2023-11-21T02:37:13;9.10;;;4.80;;
39518;SDS011;25200;53.394;10.414;2023-11-21T02:39:39;9.10;;;4.85;;
39518;SDS011;25200;53.394;10.414;2023-11-21T02:42:05;9.95;;;4.80;;
39518;SDS011;25200;53.394;10.414;2023-11-21T02:44:31;8.52;;;4.40;;
39518;SDS011;25200;53.394;10.414;2023-11-21T02:46:56;9.23;;;4.93;;
39518;SDS011;25200;53.394;10.414;2023-11-21T02:49:23;9.90;;;4.75;;
39518;SDS011;25200;53.394;10.414;2023-11-21T02:51:48;8.38;;;4.70;;
39518;SDS011;25200;53.394;10.414;2023-11-21T02:54:14;8.45;;;4.90;;
39518;SDS011;25200;53.394;10.414;2023-11-21T02:56:42;9.07;;;5.47;;
39518;SDS011;25200;53.394;10.414;2023-11-21T02:59:07;12.57;;;5.18;;
39518;SDS011;25200;53.394;10.414;2023-11-21T03:01:33;10.15;;;5.32;;
39518;SDS011;25200;53.394;10.414;2023-11-21T03:03:59;10.57;;;5.25;;
39518;SDS011;25200;53.394;10.414;2023-11-21T03:06:25;9.18;;;5.25;;
39518;SDS011;25200;53.394;10.414;2023-11-21T03:08:51;8.43;;;5.25;;
39518;SDS011;25200;53.394;10.414;2023-11-21T03:11:16;10.68;;;5.47;;
39518;SDS011;25200;53.394;10.414;2023-11-21T03:13:42;8.35;;;4.75;;
39518;SDS011;25200;53.394;10.414;2023-11-21T03:16:11;10.80;;;4.78;;
39518;SDS011;25200;53.394;10.414;2023-11-21T03:18:38;9.15;;;4.97;;
39518;SDS011;25200;53.394;10.414;2023-11-21T03:21:06;8.38;;;4.53;;
39518;SDS011;25200;53.394;10.414;2023-11-21T03:23:34;9.02;;;5.15;;
39518;SDS011;25200;53.394;10.414;2023-11-21T03:26:00;8.32;;;4.82;;
39518;SDS011;25200;53.394;10.414;2023-11-21T03:28:26;10.63;;;4.88;;
39518;SDS011;25200;53.394;10.414;2023-11-21T03:30:53;11.05;;;5.43;;
39518;SDS011;25200;53.394;10.414;2023-11-21T03:33:19;9.73;;;4.90;;
39518;SDS011;25200;53.394;10.414;2023-11-21T03:35:45;8.93;;;4.97;;
39518;SDS011;25200;53.394;10.414;2023-11-21T03:38:11;11.82;;;4.78;;
39518;SDS011;25200;53.394;10.414;2023-11-21T03:40:37;9.57;;;4.72;;
39518;SDS011;25200;53.394;10.414;2023-11-21T03:43:04;12.25;;;5.18;;
39518;SDS011;25200;53.394;10.414;2023-11-21T03:45:31;9.13;;;4.82;;
39518;SDS011;25200;53.394;10.414;2023-11-21T03:47:57;9.88;;;4.60;;
39518;SDS011;25200;53.394;10.414;2023-11-21T03:50:22;10.70;;;5.07;;
39518;SDS011;25200;53.394;10.414;2023-11-21T03:52:48;10.52;;;5.10;;
39518;SDS011;25200;53.394;10.414;2023-11-21T03:55:14;9.57;;;5.07;;
39518;SDS011;25200;53.394;10.414;2023-11-21T03:57:40;11.18;;;5.13;;
39518;SDS011;25200;53.394;10.414;2023-11-21T04:00:06;11.60;;;5.20;;
39518;SDS011;25200;53.394;10.414;2023-11-21T04:02:34;8.75;;;5.10;;
39518;SDS011;25200;53.394;10.414;2023-11-21T04:05:00;9.32;;;4.80;;
39518;SDS011;25200;53.394;10.414;2023-11-21T04:07:26;10.10;;;4.90;;
39518;SDS011;25200;53.394;10.414;2023-11-21T04:09:52;9.50;;;5.10;;
39518;SDS011;25200;53.394;10.414;2023-11-21T04:12:18;8.90;;;4.78;;
39518;SDS011;25200;53.394;10.414;2023-11-21T04:14:44;8.25;;;4.53;;
39518;SDS011;25200;53.394;10.414;2023-11-21T04:17:10;8.27;;;4.70;;
39518;SDS011;25200;53.394;10.414;2023-11-21T04:19:35;13.13;;;5.60;;
39518;SDS011;25200;53.394;10.414;2023-11-21T04:22:01;9.90;;;5.40;;
39518;SDS011;25200;53.394;10.414;2023-11-21T04:24:27;11.02;;;5.63;;
39518;SDS011;25200;53.394;10.414;2023-11-21T04:26:53;9.68;;;5.38;;
39518;SDS011;25200;53.394;10.414;2023-11-21T04:29:19;10.80;;;5.47;;
39518;SDS011;25200;53.394;10.414;2023-11-21T04:31:44;9.85;;;5.70;;
39518;SDS011;25200;53.394;10.414;2023-11-21T04:34:11;10.02;;;5.60;;
39518;SDS011;25200;53.394;10.414;2023-11-21T04:36:37;10.70;;;5.40;;
39518;SDS011;25200;53.394;10.414;2023-11-21T04:39:04;9.77;;;5.43;;
39518;SDS011;25200;53.394;10.414;2023-11-21T04:41:31;10.38;;;5.50;;
39518;SDS011;25200;53.394;10.414;2023-11-21T04:43:57;10.40;;;5.15;;
39518;SDS011;25200;53.394;10.414;2023-11-21T04:46:24;9.57;;;5.38;;
39518;SDS011;25200;53.394;10.414;2023-11-21T04:48:49;12.10;;;5.70;;
39518;SDS011;25200;53.394;10.414;2023-11-21T04:51:15;9.45;;;4.93;;
39518;SDS011;25200;53.394;10.414;2023-11-21T04:53:41;10.18;;;5.50;;
39518;SDS011;25200;53.394;10.414;2023-11-21T04:56:06;9.75;;;5.70;;
39518;SDS011;25200;53.394;10.414;2023-11-21T04:58:32;11.30;;;5.53;;
39518;SDS011;25200;53.394;10.414;2023-11-21T05:00:58;9.77;;;5.40;;
39518;SDS011;25200;53.394;10.414;2023-11-21T05:03:24;10.23;;;6.20;;
39518;SDS011;25200;53.394;10.414;2023-11-21T05:05:49;9.35;;;5.60;;
39518;SDS011;25200;53.394;10.414;2023-11-21T05:08:15;9.88;;;5.47;;
39518;SDS011;25200;53.394;10.414;2023-11-21T05:10:41;10.32;;;5.93;;
39518;SDS011;25200;53.394;10.414;2023-11-21T05:13:07;11.35;;;5.85;;
39518;SDS011;25200;53.394;10.414;2023-11-21T05:15:35;12.98;;;5.80;;
39518;SDS011;25200;53.394;10.414;2023-11-21T05:18:01;11.15;;;6.40;;
39518;SDS011;25200;53.394;10.414;2023-11-21T05:20:27;11.23;;;5.82;;
39518;SDS011;25200;53.394;10.414;2023-11-21T05:22:53;11.93;;;5.95;;
39518;SDS011;25200;53.394;10.414;2023-11-21T05:25:18;12.20;;;5.80;;
39518;SDS011;25200;53.394;10.414;2023-11-21T05:27:47;11.70;;;5.53;;
39518;SDS011;25200;53.394;10.414;2023-11-21T05:30:13;9.57;;;5.90;;
39518;SDS011;25200;53.394;10.414;2023-11-21T05:32:40;11.00;;;5.90;;
39518;SDS011;25200;53.394;10.414;2023-11-21T05:35:09;12.60;;;6.15;;
39518;SDS011;25200;53.394;10.414;2023-11-21T05:37:39;12.25;;;5.70;;
39518;SDS011;25200;53.394;10.414;2023-11-21T05:40:05;11.27;;;6.22;;
39518;SDS011;25200;53.394;10.414;2023-11-21T05:42:32;9.18;;;5.32;;
39518;SDS011;25200;53.394;10.414;2023-11-21T05:44:58;14.23;;;5.82;;
39518;SDS011;25200;53.394;10.414;2023-11-21T05:47:34;11.52;;;5.78;;
39518;SDS011;25200;53.394;10.414;2023-11-21T05:50:03;11.43;;;5.90;;
39518;SDS011;25200;53.394;10.414;2023-11-21T05:52:30;11.55;;;6.60;;
39518;SDS011;25200;53.394;10.414;2023-11-21T05:54:57;11.55;;;6.05;;
39518;SDS011;25200;53.394;10.414;2023-11-21T05:57:23;11.80;;;5.97;;
39518;SDS011;25200;53.394;10.414;2023-11-21T05:59:49;11.38;;;6.55;;
39518;SDS011;25200;53.394;10.414;2023-11-21T06:02:14;11.73;;;6.35;;
39518;SDS011;25200;53.394;10.414;2023-11-21T06:04:40;10.98;;;6.10;;
39518;SDS011;25200;53.394;10.414;2023-11-21T06:07:06;12.48;;;7.05;;
39518;SDS011;25200;53.394;10.414;2023-11-21T06:09:32;11.85;;;6.43;;
39518;SDS011;25200;53.394;10.414;2023-11-21T06:11:57;10.63;;;5.82;;
39518;SDS011;25200;53.394;10.414;2023-11-21T06:14:23;13.68;;;6.75;;
39518;SDS011;25200;53.394;10.414;2023-11-21T06:16:49;12.10;;;6.72;;
39518;SDS011;25200;53.394;10.414;2023-11-21T06:19:16;10.93;;;6.05;;
39518;SDS011;25200;53.394;10.414;2023-11-21T06:21:45;10.05;;;6.20;;
39518;SDS011;25200;53.394;10.414;2023-11-21T06:24:11;10.75;;;6.40;;
39518;SDS011;25200;53.394;10.414;2023-11-21T06:26:36;11.20;;;5.93;;
39518;SDS011;25200;53.394;10.414;2023-11-21T06:29:02;12.27;;;6.68;;
39518;SDS011;25200;53.394;10.414;2023-11-21T06:31:28;13.20;;;6.53;;
39518;SDS011;25200;53.394;10.414;2023-11-21T06:33:54;10.00;;;6.13;;
39518;SDS011;25200;53.394;10.414;2023-11-21T06:36:20;10.20;;;6.07;;
39518;SDS011;25200;53.394;10.414;2023-11-21T06:38:46;9.75;;;6.03;;
39518;SDS011;25200;53.394;10.414;2023-11-21T06:41:12;11.40;;;6.13;;
39518;SDS011;25200;53.394;10.414;2023-11-21T06:43:40;11.40;;;6.00;;
39518;SDS011;25200;53.394;10.414;2023-11-21T06:46:06;9.82;;;6.05;;
39518;SDS011;25200;53.394;10.414;2023-11-21T06:48:32;11.85;;;6.40;;
39518;SDS011;25200;53.394;10.414;2023-11-21T06:50:57;11.55;;;6.13;;
39518;SDS011;25200;53.394;10.414;2023-11-21T06:53:23;12.20;;;6.13;;
39518;SDS011;25200;53.394;10.414;2023-11-21T06:55:49;12.25;;;6.18;;
39518;SDS011;25200;53.394;10.414;2023-11-21T06:58:15;10.85;;;5.95;;
39518;SDS011;25200;53.394;10.414;2023-11-21T07:00:41;12.10;;;6.18;;
39518;SDS011;25200;53.394;10.414;2023-11-21T07:03:11;10.88;;;6.25;;
39518;SDS011;25200;53.394;10.414;2023-11-21T07:05:37;10.68;;;6.68;;
39518;SDS011;25200;53.394;10.414;2023-11-21T07:08:03;10.85;;;6.28;;
39518;SDS011;25200;53.394;10.414;2023-11-21T07:10:29;11.35;;;6.40;;
39518;SDS011;25200;53.394;10.414;2023-11-21T07:12:55;10.57;;;6.25;;
39518;SDS011;25200;53.394;10.414;2023-11-21T07:15:22;9.98;;;5.85;;
39518;SDS011;25200;53.394;10.414;2023-11-21T07:17:48;11.20;;;6.45;;
39518;SDS011;25200;53.394;10.414;2023-11-21T07:20:13;11.18;;;6.18;;
39518;SDS011;25200;53.394;10.414;2023-11-21T07:22:42;11.88;;;6.38;;
39518;SDS011;25200;53.394;10.414;2023-11-21T07:25:08;11.18;;;6.28;;
39518;SDS011;25200;53.394;10.414;2023-11-21T07:27:34;11.40;;;6.38;;
39518;SDS011;25200;53.394;10.414;2023-11-21T07:30:01;10.82;;;5.88;;
39518;SDS011;25200;53.394;10.414;2023-11-21T07:32:31;12.73;;;7.13;;
39518;SDS011;25200;53.394;10.414;2023-11-21T07:34:57;11.60;;;6.32;;
39518;SDS011;25200;53.394;10.414;2023-11-21T07:37:24;11.60;;;6.20;;
39518;SDS011;25200;53.394;10.414;2023-11-21T07:39:53;11.45;;;6.78;;
39518;SDS011;25200;53.394;10.414;2023-11-21T07:42:21;11.88;;;6.80;;
39518;SDS011;25200;53.394;10.414;2023-11-21T07:44:49;11.77;;;6.63;;
39518;SDS011;25200;53.394;10.414;2023-11-21T07:47:15;13.98;;;7.05;;
39518;SDS011;25200;53.394;10.414;2023-11-21T07:49:41;12.73;;;6.80;;
39518;SDS011;25200;53.394;10.414;2023-11-21T07:52:09;12.85;;;7.03;;
39518;SDS011;25200;53.394;10.414;2023-11-21T07:54:35;13.63;;;7.05;;
39518;SDS011;25200;53.394;10.414;2023-11-21T07:57:01;10.30;;;6.50;;
39518;SDS011;25200;53.394;10.414;2023-11-21T07:59:29;11.43;;;6.82;;
39518;SDS011;25200;53.394;10.414;2023-11-21T08:01:55;12.15;;;6.53;;
39518;SDS011;25200;53.394;10.414;2023-11-21T08:04:21;14.88;;;6.82;;
39518;SDS011;25200;53.394;10.414;2023-11-21T08:06:47;12.25;;;6.95;;
39518;SDS011;25200;53.394;10.414;2023-11-21T08:09:13;11.38;;;6.68;;
39518;SDS011;25200;53.394;10.414;2023-11-21T08:11:39;11.70;;;6.88;;
39518;SDS011;25200;53.394;10.414;2023-11-21T08:14:05;14.07;;;6.78;;
39518;SDS011;25200;53.394;10.414;2023-11-21T08:16:31;12.93;;;7.10;;
39518;SDS011;25200;53.394;10.414;2023-11-21T08:18:57;11.98;;;6.97;;
39518;SDS011;25200;53.394;10.414;2023-11-21T08:21:23;15.70;;;6.90;;
39518;SDS011;25200;53.394;10.414;2023-11-21T08:23:50;11.52;;;6.78;;
39518;SDS011;25200;53.394;10.414;2023-11-21T08:26:19;12.65;;;6.70;;
39518;SDS011;25200;53.394;10.414;2023-11-21T08:28:46;10.68;;;6.70;;
39518;SDS011;25200;53.394;10.414;2023-11-21T08:31:12;13.20;;;6.65;;
39518;SDS011;25200;53.394;10.414;2023-11-21T08:33:38;10.18;;;6.20;;
39518;SDS011;25200;53.394;10.414;2023-11-21T08:36:10;10.30;;;6.07;;
39518;SDS011;25200;53.394;10.414;2023-11-21T08:38:37;10.98;;;6.32;;
39518;SDS011;25200;53.394;10.414;2023-11-21T08:41:06;10.63;;;6.60;;
39518;SDS011;25200;53.394;10.414;2023-11-21T08:43:35;12.25;;;6.20;;
39518;SDS011;25200;53.394;10.414;2023-11-21T08:46:04;10.27;;;6.20;;
39518;SDS011;25200;53.394;10.414;2023-11-21T08:48:31;10.90;;;5.90;;
39518;SDS011;25200;53.394;10.414;2023-11-21T08:50:57;9.85;;;5.53;;
39518;SDS011;25200;53.394;10.414;2023-11-21T08:53:23;10.85;;;5.95;;
39518;SDS011;25200;53.394;10.414;2023-11-21T08:55:51;10.45;;;5.80;;
39518;SDS011;25200;53.394;10.414;2023-11-21T08:58:18;8.80;;;5.05;;
39518;SDS011;25200;53.394;10.414;2023-11-21T09:00:44;11.02;;;5.30;;
39518;SDS011;25200;53.394;10.414;2023-11-21T09:03:11;9.45;;;5.07;;
39518;SDS011;25200;53.394;10.414;2023-11-21T09:05:38;11.02;;;5.47;;
39518;SDS011;25200;53.394;10.414;2023-11-21T09:08:05;9.52;;;5.32;;
39518;SDS011;25200;53.394;10.414;2023-11-21T09:10:33;8.15;;;4.70;;
39518;SDS011;25200;53.394;10.414;2023-11-21T09:13:02;8.43;;;4.85;;
39518;SDS011;25200;53.394;10.414;2023-11-21T09:15:28;10.15;;;5.40;;
39518;SDS011;25200;53.394;10.414;2023-11-21T09:17:54;9.73;;;5.03;;
39518;SDS011;25200;53.394;10.414;2023-11-21T09:20:21;8.95;;;4.93;;
39518;SDS011;25200;53.394;10.414;2023-11-21T09:22:48;8.65;;;4.75;;
39518;SDS011;25200;53.394;10.414;2023-11-21T09:25:14;8.57;;;4.70;;
39518;SDS011;25200;53.394;10.414;2023-11-21T09:27:41;10.00;;;4.82;;
39518;SDS011;25200;53.394;10.414;2023-11-21T09:30:07;8.38;;;4.65;;
39518;SDS011;25200;53.394;10.414;2023-11-21T09:32:35;8.18;;;4.40;;
39518;SDS011;25200;53.394;10.414;2023-11-21T09:35:02;7.00;;;4.55;;
39518;SDS011;25200;53.394;10.414;2023-11-21T09:37:30;10.30;;;4.70;;
39518;SDS011;25200;53.394;10.414;2023-11-21T09:39:56;8.30;;;4.60;;
39518;SDS011;25200;53.394;10.414;2023-11-21T09:45:05;9.32;;;4.75;;
39518;SDS011;25200;53.394;10.414;2023-11-21T09:47:43;7.80;;;4.38;;
39518;SDS011;25200;53.394;10.414;2023-11-21T09:50:09;7.82;;;4.13;;
39518;SDS011;25200;53.394;10.414;2023-11-21T09:52:42;7.80;;;4.05;;
39518;SDS011;25200;53.394;10.414;2023-11-21T09:55:16;9.80;;;4.32;;
39518;SDS011;25200;53.394;10.414;2023-11-21T09:57:46;8.07;;;4.07;;
39518;SDS011;25200;53.394;10.414;2023-11-21T10:00:16;7.78;;;4.22;;
39518;SDS011;25200;53.394;10.414;2023-11-21T10:02:45;7.55;;;3.78;;
39518;SDS011;25200;53.394;10.414;2023-11-21T10:05:15;8.65;;;4.40;;
39518;SDS011;25200;53.394;10.414;2023-11-21T10:07:42;8.02;;;4.25;;
39518;SDS011;25200;53.394;10.414;2023-11-21T10:10:10;7.93;;;4.40;;
39518;SDS011;25200;53.394;10.414;2023-11-21T10:12:37;8.10;;;4.20;;
39518;SDS011;25200;53.394;10.414;2023-11-21T10:15:04;8.45;;;4.45;;
39518;SDS011;25200;53.394;10.414;2023-11-21T10:17:35;8.10;;;4.18;;
39518;SDS011;25200;53.394;10.414;2023-11-21T10:20:08;7.50;;;4.25;;
39518;SDS011;25200;53.394;10.414;2023-11-21T10:22:39;6.97;;;3.67;;
39518;SDS011;25200;53.394;10.414;2023-11-21T10:25:07;8.23;;;3.95;;
39518;SDS011;25200;53.394;10.414;2023-11-21T10:27:34;7.07;;;3.83;;
39518;SDS011;25200;53.394;10.414;2023-11-21T10:30:03;6.75;;;3.88;;
39518;SDS011;25200;53.394;10.414;2023-11-21T10:32:30;7.90;;;3.55;;
39518;SDS011;25200;53.394;10.414;2023-11-21T10:34:59;7.90;;;3.72;;
39518;SDS011;25200;53.394;10.414;2023-11-21T10:37:27;6.93;;;3.60;;
39518;SDS011;25200;53.394;10.414;2023-11-21T10:39:59;8.98;;;3.40;;
39518;SDS011;25200;53.394;10.414;2023-11-21T10:42:25;6.00;;;3.25;;
39518;SDS011;25200;53.394;10.414;2023-11-21T10:44:52;7.55;;;3.50;;
39518;SDS011;25200;53.394;10.414;2023-11-21T10:47:19;6.20;;;3.40;;
39518;SDS011;25200;53.394;10.414;2023-11-21T10:49:51;6.80;;;3.28;;
39518;SDS011;25200;53.394;10.414;2023-11-21T10:52:18;6.65;;;3.35;;
39518;SDS011;25200;53.394;10.414;2023-11-21T10:54:46;6.25;;;3.33;;
39518;SDS011;25200;53.394;10.414;2023-11-21T10:57:13;6.15;;;3.13;;
39518;SDS011;25200;53.394;10.414;2023-11-21T10:59:43;5.45;;;3.05;;
39518;SDS011;25200;53.394;10.414;2023-11-21T11:02:22;7.18;;;3.17;;
39518;SDS011;25200;53.394;10.414;2023-11-21T11:05:00;8.25;;;3.33;;
39518;SDS011;25200;53.394;10.414;2023-11-21T11:07:26;7.60;;;3.53;;
39518;SDS011;25200;53.394;10.414;2023-11-21T11:09:56;7.97;;;3.03;;
39518;SDS011;25200;53.394;10.414;2023-11-21T11:12:24;7.80;;;3.28;;
39518;SDS011;25200;53.394;10.414;2023-11-21T11:14:51;7.05;;;3.60;;
39518;SDS011;25200;53.394;10.414;2023-11-21T11:17:18;6.35;;;2.88;;
39518;SDS011;25200;53.394;10.414;2023-11-21T11:19:47;8.40;;;3.38;;
39518;SDS011;25200;53.394;10.414;2023-11-21T11:25:03;6.38;;;3.15;;
39518;SDS011;25200;53.394;10.414;2023-11-21T11:38:27;7.53;;;3.30;;
39518;SDS011;25200;53.394;10.414;2023-11-21T11:40:56;5.90;;;3.20;;
39518;SDS011;25200;53.394;10.414;2023-11-21T11:43:25;6.93;;;3.30;;
39518;SDS011;25200;53.394;10.414;2023-11-21T11:45:52;9.18;;;2.67;;
39518;SDS011;25200;53.394;10.414;2023-11-21T11:48:22;7.72;;;3.53;;
39518;SDS011;25200;53.394;10.414;2023-11-21T11:51:01;5.93;;;3.00;;
39518;SDS011;25200;53.394;10.414;2023-11-21T11:53:42;5.95;;;3.25;;
39518;SDS011;25200;53.394;10.414;2023-11-21T11:58:51;7.22;;;3.25;;
39518;SDS011;25200;53.394;10.414;2023-11-21T12:01:19;5.60;;;2.85;;
39518;SDS011;25200;53.394;10.414;2023-11-21T12:04:31;7.82;;;2.90;;
39518;SDS011;25200;53.394;10.414;2023-11-21T12:06:48;6.30;;;3.20;;
39518;SDS011;25200;53.394;10.414;2023-11-21T12:09:19;5.53;;;2.75;;
39518;SDS011;25200;53.394;10.414;2023-11-21T12:11:47;5.97;;;2.90;;
39518;SDS011;25200;53.394;10.414;2023-11-21T12:14:14;5.93;;;2.90;;
39518;SDS011;25200;53.394;10.414;2023-11-21T12:16:41;5.53;;;2.95;;
39518;SDS011;25200;53.394;10.414;2023-11-21T12:19:08;6.60;;;3.22;;
39518;SDS011;25200;53.394;10.414;2023-11-21T12:21:37;7.07;;;3.40;;
39518;SDS011;25200;53.394;10.414;2023-11-21T12:24:05;6.18;;;3.03;;
39518;SDS011;25200;53.394;10.414;2023-11-21T12:26:34;5.38;;;2.88;;
39518;SDS011;25200;53.394;10.414;2023-11-21T12:29:01;6.75;;;2.88;;
39518;SDS011;25200;53.394;10.414;2023-11-21T12:31:30;6.30;;;3.13;;
39518;SDS011;25200;53.394;10.414;2023-11-21T12:33:56;6.55;;;2.92;;
39518;SDS011;25200;53.394;10.414;2023-11-21T12:36:22;6.68;;;3.00;;
39518;SDS011;25200;53.394;10.414;2023-11-21T12:38:50;5.68;;;3.10;;
39518;SDS011;25200;53.394;10.414;2023-11-21T12:41:16;6.95;;;3.17;;
39518;SDS011;25200;53.394;10.414;2023-11-21T12:43:46;6.13;;;3.30;;
39518;SDS011;25200;53.394;10.414;2023-11-21T12:46:13;6.32;;;2.90;;
39518;SDS011;25200;53.394;10.414;2023-11-21T12:48:43;4.93;;;2.50;;
39518;SDS011;25200;53.394;10.414;2023-11-21T12:51:12;7.85;;;3.28;;
39518;SDS011;25200;53.394;10.414;2023-11-21T12:53:42;8.57;;;2.97;;
39518;SDS011;25200;53.394;10.414;2023-11-21T12:56:11;6.40;;;2.70;;
39518;SDS011;25200;53.394;10.414;2023-11-21T12:58:38;5.93;;;2.67;;
39518;SDS011;25200;53.394;10.414;2023-11-21T13:01:06;6.20;;;2.83;;
39518;SDS011;25200;53.394;10.414;2023-11-21T13:03:40;5.88;;;2.80;;
39518;SDS011;25200;53.394;10.414;2023-11-21T13:06:10;5.22;;;2.70;;
39518;SDS011;25200;53.394;10.414;2023-11-21T13:08:37;7.15;;;3.45;;
39518;SDS011;25200;53.394;10.414;2023-11-21T13:11:04;7.28;;;3.40;;
39518;SDS011;25200;53.394;10.414;2023-11-21T13:13:31;6.40;;;3.00;;
39518;SDS011;25200;53.394;10.414;2023-11-21T13:16:01;5.88;;;2.90;;
39518;SDS011;25200;53.394;10.414;2023-11-21T13:18:31;6.45;;;2.85;;
39518;SDS011;25200;53.394;10.414;2023-11-21T13:21:04;7.13;;;3.15;;
39518;SDS011;25200;53.394;10.414;2023-11-21T13:23:36;5.57;;;2.83;;
39518;SDS011;25200;53.394;10.414;2023-11-21T13:26:03;4.85;;;2.60;;
39518;SDS011;25200;53.394;10.414;2023-11-21T13:28:29;6.10;;;3.22;;
39518;SDS011;25200;53.394;10.414;2023-11-21T13:30:58;8.40;;;2.95;;
39518;SDS011;25200;53.394;10.414;2023-11-21T13:33:34;5.05;;;2.67;;
39518;SDS011;25200;53.394;10.414;2023-11-21T13:36:03;6.13;;;3.10;;
39518;SDS011;25200;53.394;10.414;2023-11-21T13:38:32;6.43;;;3.00;;
39518;SDS011;25200;53.394;10.414;2023-11-21T13:41:00;5.53;;;2.75;;
39518;SDS011;25200;53.394;10.414;2023-11-21T13:43:26;6.00;;;3.03;;
39518;SDS011;25200;53.394;10.414;2023-11-21T13:45:54;5.35;;;2.88;;
39518;SDS011;25200;53.394;10.414;2023-11-21T13:48:38;5.97;;;2.90;;
39518;SDS011;25200;53.394;10.414;2023-11-21T13:51:08;8.80;;;3.63;;
39518;SDS011;25200;53.394;10.414;2023-11-21T13:53:46;6.70;;;3.08;;
39518;SDS011;25200;53.394;10.414;2023-11-21T13:56:15;6.03;;;3.30;;
39518;SDS011;25200;53.394;10.414;2023-11-21T13:58:46;7.13;;;3.00;;
39518;SDS011;25200;53.394;10.414;2023-11-21T14:01:16;5.95;;;2.80;;
39518;SDS011;25200;53.394;10.414;2023-11-21T14:03:52;5.70;;;2.90;;
39518;SDS011;25200;53.394;10.414;2023-11-21T14:06:23;8.75;;;3.65;;
39518;SDS011;25200;53.394;10.414;2023-11-21T14:08:55;6.82;;;2.97;;
39518;SDS011;25200;53.394;10.414;2023-11-21T14:11:22;6.28;;;3.17;;
39518;SDS011;25200;53.394;10.414;2023-11-21T14:13:48;6.53;;;3.53;;
39518;SDS011;25200;53.394;10.414;2023-11-21T14:16:14;8.63;;;3.45;;
39518;SDS011;25200;53.394;10.414;2023-11-21T14:18:42;6.95;;;3.30;;
39518;SDS011;25200;53.394;10.414;2023-11-21T14:21:20;7.05;;;3.03;;
39518;SDS011;25200;53.394;10.414;2023-11-21T14:23:46;7.13;;;3.17;;
39518;SDS011;25200;53.394;10.414;2023-11-21T14:26:13;6.15;;;3.10;;
39518;SDS011;25200;53.394;10.414;2023-11-21T14:28:41;6.13;;;3.15;;
39518;SDS011;25200;53.394;10.414;2023-11-21T14:31:07;5.72;;;2.80;;
39518;SDS011;25200;53.394;10.414;2023-11-21T14:33:40;6.65;;;3.08;;
39518;SDS011;25200;53.394;10.414;2023-11-21T14:36:06;7.03;;;2.95;;
39518;SDS011;25200;53.394;10.414;2023-11-21T14:38:36;7.40;;;3.17;;
39518;SDS011;25200;53.394;10.414;2023-11-21T14:41:05;6.30;;;2.90;;
39518;SDS011;25200;53.394;10.414;2023-11-21T14:43:36;7.70;;;2.95;;
39518;SDS011;25200;53.394;10.414;2023-11-21T14:46:03;6.68;;;3.15;;
39518;SDS011;25200;53.394;10.414;2023-11-21T14:48:33;6.78;;;3.10;;